M I D A S
Marine Information and Data Acquisition System
Tripno 325 of the Zeeleeuw from 2002-08-12 06:44:28 to 2002-08-12 13:50:56
Back to CruiseResearch ActivitiesStationsMapUnderway DataData graphs

EquipmentUnitsComment
TimeDGPSUTC
LatitudeDGPSDM.mWGS84
LongitudeDGPSDM.mWGS84
TemperatureSBE03/SBE38deg celciusITS90
ConductivitySBE21S/mITS90
SalinitySBE21 Practical Salinity Units
ChlorophylAChelsea fluorimeterg/lCalibrated in Aceton
Missing or incorrect values are displayed as -999
Sea surface data collected by the RV Zeeleeuw from 2002-08-12 06:44:28 to 2002-08-12 13:50:56
                                                                                    Next 1000 lines
Time Latitude Longitude Temperature Conductivity Salinity ChlorophylA
2002-08-12 06:44:37 51°13.617 2°55.983 21.380642 0.966676 5.599984  
2002-08-12 06:44:41 51°13.617 2°55.983 21.380642 0.966676 5.599984  
2002-08-12 06:44:47 51°13.618 2°55.982 21.380761 0.966676 5.599984  
2002-08-12 06:44:52 51°13.619 2°55.98 21.380682 0.966676 5.599984  
2002-08-12 06:44:57 51°13.62 2°55.979 21.380841 0.966676 5.600151  
2002-08-12 06:45:03 51°13.622 2°55.976 21.381475 0.966571 5.599583  
2002-08-12 06:45:07 51°13.623 2°55.974 21.382071 0.966571 5.599583  
2002-08-12 06:45:13 51°13.625 2°55.97 21.382071 0.966571 5.599583  
2002-08-12 06:45:17 51°13.626 2°55.968 21.382587 0.966571 5.599667  
2002-08-12 06:45:22 51°13.629 2°55.964 21.383063 0.966571 5.599667  
2002-08-12 06:45:27 51°13.631 2°55.96 21.383142 0.966571 5.599667  
2002-08-12 06:45:32 51°13.633 2°55.955 21.383221 0.966571 5.599834  
2002-08-12 06:45:37 51°13.635 2°55.95 21.383975 0.966571 5.599917  
2002-08-12 06:45:42 51°13.637 2°55.944 21.383975 0.966571 5.599917  
2002-08-12 06:45:46 51°13.64 2°55.94 21.384452 0.966571 5.599834  
2002-08-12 06:45:52 51°13.643 2°55.933 21.384769 0.966571 5.599917  
2002-08-12 06:45:56 51°13.645 2°55.928 21.385444 0.966467 5.599349  
2002-08-12 06:46:02 51°13.648 2°55.92 21.386039 0.966571 5.600085  
2002-08-12 06:46:06 51°13.65 2°55.914 21.386118 0.966467 5.599433  
2002-08-12 06:46:12 51°13.654 2°55.906 21.386118 0.966467 5.599433  
2002-08-12 06:46:17 51°13.657 2°55.899 21.386594 0.966467 5.599516  
2002-08-12 06:46:22 51°13.66 2°55.892 21.386753 0.966467 5.5996  
2002-08-12 06:46:26 51°13.662 2°55.885 21.386872 0.966467 5.5996  
2002-08-12 06:46:32 51°13.666 2°55.875 21.387269 0.966467 5.599683  
2002-08-12 06:46:37 51°13.669 2°55.868 21.387904 0.966467 5.599767  
2002-08-12 06:46:42 51°13.672 2°55.86 21.387904 0.966467 5.599767  
2002-08-12 06:46:46 51°13.674 2°55.853 21.38842 0.966467 5.599851  
2002-08-12 06:46:52 51°13.678 2°55.843 21.388975 0.966467 5.599851  
2002-08-12 06:46:56 51°13.68 2°55.836 21.389411 0.966467 5.599767  
2002-08-12 06:47:02 51°13.684 2°55.825 21.389967 0.966467 5.599934  
2002-08-12 06:47:07 51°13.687 2°55.816 21.390403 0.966467 5.600018  
2002-08-12 06:47:12 51°13.69 2°55.807 21.390403 0.966467 5.600018  
2002-08-12 06:47:17 51°13.694 2°55.798 21.3908 0.966467 5.599934  
2002-08-12 06:47:22 51°13.697 2°55.788 21.390999 0.966467 5.600018  
2002-08-12 06:47:26 51°13.7 2°55.781 21.391475 0.966362 5.599449  
2002-08-12 06:47:32 51°13.704 2°55.771 21.391951 0.966362 5.599449  
2002-08-12 06:47:37 51°13.708 2°55.762 21.392467 0.966362 5.599533  
2002-08-12 06:47:42 51°13.712 2°55.753 21.392467 0.966362 5.599533  
2002-08-12 06:47:47 51°13.717 2°55.745 21.392863 0.966467 5.600269  
2002-08-12 06:47:52 51°13.722 2°55.737 21.39322 0.966467 5.600269  
2002-08-12 06:47:57 51°13.726 2°55.73 21.393538 0.966467 5.600269  
2002-08-12 06:48:02 51°13.731 2°55.723 21.393697 0.966362 5.5997  
2002-08-12 06:48:07 51°13.737 2°55.716 21.39445 0.966362 5.5997  
2002-08-12 06:48:12 51°13.742 2°55.71 21.39445 0.966362 5.5997  
2002-08-12 06:48:17 51°13.748 2°55.704 21.394768 0.966362 5.599784  
2002-08-12 06:48:22 51°13.754 2°55.699 21.395284 0.966362 5.599784  
2002-08-12 06:48:26 51°13.758 2°55.694 21.395641 0.966362 5.599867  
2002-08-12 06:48:32 51°13.765 2°55.688 21.395601 0.966362 5.599951  
2002-08-12 06:48:37 51°13.771 2°55.683 21.396355 0.966467 5.600519  
2002-08-12 06:48:42 51°13.777 2°55.678 21.396355 0.966467 5.600519  
2002-08-12 06:48:46 51°13.782 2°55.674 21.396831 0.966362 5.599951  
2002-08-12 06:48:52 51°13.789 2°55.668 21.397743 0.966362 5.599951  
2002-08-12 06:48:57 51°13.796 2°55.663 21.398299 0.966362 5.600035  
2002-08-12 06:49:02 51°13.802 2°55.658 21.398656 0.966362 5.600118  
2002-08-12 06:49:06 51°13.807 2°55.654 21.399211 0.966362 5.600202  
2002-08-12 06:49:12 51°13.815 2°55.649 21.399211 0.966362 5.600202  
2002-08-12 06:49:17 51°13.822 2°55.645 21.401433 0.966362 5.600202  
2002-08-12 06:49:22 51°13.828 2°55.641 21.401195 0.966362 5.600286  
2002-08-12 06:49:26 51°13.834 2°55.637 21.402107 0.966362 5.600369  
2002-08-12 06:49:32 51°13.842 2°55.631 21.402028 0.966362 5.600453  
2002-08-12 06:49:37 51°13.848 2°55.626 21.40294 0.966362 5.600453  
2002-08-12 06:49:42 51°13.855 2°55.621 21.40294 0.966362 5.600453  
2002-08-12 06:49:47 51°13.862 2°55.616 21.402504 0.966362 5.600453  
2002-08-12 06:49:52 51°13.869 2°55.611 21.402861 0.966362 5.600536  
2002-08-12 06:49:57 51°13.875 2°55.607 21.403813 0.966362 5.600704  
2002-08-12 06:50:02 51°13.883 2°55.602 21.404249 0.966362 5.600704  
2002-08-12 06:50:06 51°13.888 2°55.598 21.405003 0.966362 5.600787  
2002-08-12 06:50:12 51°13.896 2°55.592 21.405003 0.966362 5.600787  
2002-08-12 06:50:17 51°13.903 2°55.588 21.405083 0.966362 5.600787  
2002-08-12 06:50:22 51°13.911 2°55.583 21.405241 0.966362 5.600871  
2002-08-12 06:50:26 51°13.916 2°55.579 21.405717 0.966362 5.600955  
2002-08-12 06:50:32 51°13.925 2°55.574 21.40655 0.966362 5.600955  
2002-08-12 06:50:37 51°13.933 2°55.569 21.406788 0.966362 5.600955  
2002-08-12 06:50:42 51°13.94 2°55.564 21.406788 0.966362 5.600955  
2002-08-12 06:50:46 51°13.946 2°55.56 21.407026 0.966362 5.600955  
2002-08-12 06:50:52 51°13.956 2°55.554 21.407304 0.966362 5.600955  
2002-08-12 06:50:57 51°13.963 2°55.549 21.408018 0.966362 5.601038  
2002-08-12 06:51:02 51°13.971 2°55.544 21.408216 0.966362 5.601122  
2002-08-12 06:51:06 51°13.977 2°55.539 21.408613 0.966362 5.601206  
2002-08-12 06:51:12 51°13.986 2°55.533 21.408613 0.966362 5.601206  
2002-08-12 06:51:17 51°13.994 2°55.528 21.40901 0.966362 5.601289  
2002-08-12 06:51:22 51°14.002 2°55.521 21.409843 0.966362 5.601289  
2002-08-12 06:51:26 51°14.008 2°55.517 21.410676 0.966362 5.601373  
2002-08-12 06:51:32 51°14.018 2°55.51 21.411429 0.966362 5.601373  
2002-08-12 06:51:37 51°14.025 2°55.505 21.411985 0.966362 5.601456  
2002-08-12 06:51:42 51°14.033 2°55.499 21.411985 0.966362 5.601456  
2002-08-12 06:51:47 51°14.041 2°55.493 21.412738 0.966362 5.60154  
2002-08-12 06:51:52 51°14.049 2°55.487 21.412738 0.966257 5.600888  
2002-08-12 06:51:57 51°14.057 2°55.481 21.414285 0.966362 5.601624  
2002-08-12 06:52:02 51°14.065 2°55.475 21.417776 0.966362 5.601707  
2002-08-12 06:52:07 51°14.073 2°55.468 21.416943 0.966362 5.601707  
2002-08-12 06:52:12 51°14.081 2°55.461 21.416943 0.966362 5.601707  
2002-08-12 06:52:17 51°14.09 2°55.455 21.416467 0.966362 5.601791  
2002-08-12 06:52:22 51°14.098 2°55.448 21.417141 0.966362 5.601875  
2002-08-12 06:52:27 51°14.107 2°55.441 -999 0.966362 5.601958  
2002-08-12 06:52:32 51°14.115 2°55.434 38.231384 0.966362 5.601958  
2002-08-12 06:52:37 51°14.124 2°55.427 23.625777 0.966362 5.602042  
2002-08-12 06:52:42 51°14.132 2°55.419 23.625777 0.966362 5.602042  
2002-08-12 06:52:46 51°14.139 2°55.412 23.784938 0.966362 5.602042  
2002-08-12 06:52:52 51°14.149 2°55.402 23.880734 0.966362 5.602126  
2002-08-12 06:52:57 51°14.158 2°55.395 24.101296 0.966362 5.602126  
2002-08-12 06:53:02 51°14.167 2°55.387 23.820656 0.966362 5.60221  
2002-08-12 06:53:07 51°14.175 2°55.378 23.697506 0.966362 5.60221  
2002-08-12 06:53:12 51°14.184 2°55.369 23.697506 0.966362 5.60221  
2002-08-12 06:53:17 51°14.192 2°55.359 23.633161 0.966362 5.602293  
2002-08-12 06:53:22 51°14.2 2°55.351 24.133421 0.966362 5.602377  
2002-08-12 06:53:26 51°14.207 2°55.342 23.31934 0.966362 5.602377  
2002-08-12 06:53:32 51°14.216 2°55.329 23.572377 0.966362 5.602377  
2002-08-12 06:53:37 51°14.224 2°55.318 24.202437 0.966362 5.602461  
2002-08-12 06:53:42 51°14.231 2°55.308 24.202437 0.966362 5.602461  
2002-08-12 06:53:46 51°14.238 2°55.299 23.613277 0.966362 5.602544  
2002-08-12 06:53:52 51°14.247 2°55.285 23.670222 0.966362 5.602628  
2002-08-12 06:53:57 51°14.254 2°55.273 23.891196 0.966362 5.602544  
2002-08-12 06:54:02 51°14.262 2°55.262 23.925253 0.966362 5.602628  
2002-08-12 06:54:06 51°14.268 2°55.253 23.83289 0.966362 5.602712  
2002-08-12 06:54:12 51°14.277 2°55.24 23.83289 0.966362 5.602712  
2002-08-12 06:54:17 51°14.284 2°55.228 23.547201 0.966362 5.602712  
2002-08-12 06:54:22 51°14.291 2°55.215 23.777493 0.966362 5.602795  
2002-08-12 06:54:27 51°14.298 2°55.203 23.77496 0.966362 5.602879  
2002-08-12 06:54:32 51°14.304 2°55.19 23.93161 0.966362 5.602879  
2002-08-12 06:54:37 51°14.311 2°55.176 23.431683 0.966362 5.602963  
2002-08-12 06:54:42 51°14.317 2°55.162 23.431683 0.966362 5.602963  
2002-08-12 06:54:46 51°14.322 2°55.151 23.528141 0.966362 5.603047  
2002-08-12 06:54:52 51°14.329 2°55.135 24.163433 0.966362 5.603047  
2002-08-12 06:54:57 51°14.335 2°55.12 23.563832 0.966362 5.60313  
2002-08-12 06:55:02 51°14.341 2°55.106 23.380415 0.966467 5.60395  
2002-08-12 06:55:06 51°14.346 2°55.095 23.440668 0.966258 5.602729  
2002-08-12 06:55:12 51°14.353 2°55.077 23.440668 0.966258 5.602729  
2002-08-12 06:55:17 51°14.358 2°55.062 23.786089 0.966362 5.603465  
2002-08-12 06:55:22 51°14.364 2°55.048 23.632277 0.966258 5.602813  
2002-08-12 06:55:27 51°14.369 2°55.034 23.633661 0.966467 5.604285  
2002-08-12 06:55:32 51°14.374 2°55.018 23.76214 0.966467 5.604453  
2002-08-12 06:55:37 51°14.378 2°55.002 23.87418 0.966362 5.603884  
2002-08-12 06:55:41 51°14.381 2°54.99 23.87418 0.966362 5.603884  
2002-08-12 06:55:46 51°14.384 2°54.974 23.728467 0.966467 5.604788  
2002-08-12 06:55:52 51°14.386 2°54.956 23.887709 0.966258 5.603566  
2002-08-12 06:55:57 51°14.388 2°54.94 23.951637 0.966467 5.605039  
2002-08-12 06:56:02 51°14.388 2°54.923 23.294038 0.966258 5.603734  
2002-08-12 06:56:06 51°14.389 2°54.911 23.703077 0.966467 5.60529  
2002-08-12 06:56:12 51°14.389 2°54.891 23.703077 0.966467 5.60529  
2002-08-12 06:56:17 51°14.388 2°54.875 23.8294 0.966362 5.604638  
2002-08-12 06:56:22 51°14.388 2°54.858 23.799135 0.966362 5.604805  
2002-08-12 06:56:26 51°14.388 2°54.844 23.515701 0.966362 5.604889  
2002-08-12 06:56:32 51°14.387 2°54.824 23.359381 0.966467 5.605625  
2002-08-12 06:56:37 51°14.385 2°54.808 23.8961 0.966467 5.605877  
2002-08-12 06:56:42 51°14.384 2°54.791 23.8961 0.966467 5.605877  
2002-08-12 06:56:47 51°14.382 2°54.773 23.424163 0.966467 5.605961  
2002-08-12 06:56:52 51°14.38 2°54.757 23.77212 0.966362 5.605308  
2002-08-12 06:56:57 51°14.378 2°54.741 23.864905 0.966467 5.605961  
2002-08-12 06:57:02 51°14.375 2°54.724 23.393959 0.966467 5.606128  
2002-08-12 06:57:06 51°14.372 2°54.71 23.619239 0.966467 5.606296  
2002-08-12 06:57:12 51°14.367 2°54.688 23.619239 0.966467 5.606296  
2002-08-12 06:57:17 51°14.363 2°54.67 23.617162 0.966467 5.606296  
2002-08-12 06:57:22 51°14.359 2°54.653 24.339319 0.966467 5.60638  
2002-08-12 06:57:26 51°14.355 2°54.64 24.150452 0.966258 5.605158  
2002-08-12 06:57:32 51°14.35 2°54.62 25.086454 0.966571 5.607116  
2002-08-12 06:57:37 51°14.346 2°54.603 24.930764 0.966467 5.606547  
2002-08-12 06:57:42 51°14.341 2°54.586 24.930764 0.966467 5.606547  
2002-08-12 06:57:47 51°14.336 2°54.57 25.023969 0.966258 5.605409  
2002-08-12 06:57:52 51°14.331 2°54.553 25.458749 0.966571 5.607368  
2002-08-12 06:57:57 51°14.326 2°54.536 24.905186 0.966467 5.606883  
2002-08-12 06:58:02 51°14.321 2°54.519 24.685954 0.966676 5.608272  
2002-08-12 06:58:07 51°14.316 2°54.503 24.374575 0.966258 5.605661  
2002-08-12 06:58:12 51°14.31 2°54.486 24.374575 0.966258 5.605661  
2002-08-12 06:58:17 51°14.305 2°54.47 25.56634 0.966676 5.608272  
2002-08-12 06:58:22 51°14.299 2°54.453 25.152238 0.966258 5.605745  
2002-08-12 06:58:26 51°14.295 2°54.44 25.399921 0.966781 5.609093  
2002-08-12 06:58:32 51°14.288 2°54.42 25.0598 0.966571 5.607871  
2002-08-12 06:58:37 51°14.283 2°54.403 24.99899 0.966781 5.60926  
2002-08-12 06:58:42 51°14.277 2°54.385 24.99899 0.966781 5.60926  
2002-08-12 06:58:47 51°14.271 2°54.366 24.53309 0.966362 5.606649  
2002-08-12 06:58:52 51°14.264 2°54.347 24.473245 0.966676 5.608691  
2002-08-12 06:58:57 51°14.258 2°54.327 24.816369 0.966362 5.606817  
2002-08-12 06:59:02 51°14.251 2°54.307 25.277124 0.966676 5.608775  
2002-08-12 06:59:06 51°14.245 2°54.29 24.692321 0.966467 5.607637  
2002-08-12 06:59:12 51°14.236 2°54.264 24.692321 0.966467 5.607637  
2002-08-12 06:59:17 51°14.229 2°54.242 25.034003 0.966676 5.609027  
2002-08-12 06:59:22 51°14.222 2°54.219 25.375972 0.966571 5.608458  
2002-08-12 06:59:27 51°14.214 2°54.196 25.068698 0.966467 5.607805  
2002-08-12 06:59:32 51°14.206 2°54.173 24.661693 0.966781 5.609931  
2002-08-12 06:59:37 51°14.198 2°54.148 24.941076 0.966467 5.608057  
2002-08-12 06:59:42 51°14.19 2°54.124 24.941076 0.966467 5.608057  
2002-08-12 06:59:47 51°14.182 2°54.1 25.130618 0.966571 5.608877  
2002-08-12 06:59:52 51°14.174 2°54.074 25.530644 0.966676 5.60953  
2002-08-12 06:59:57 51°14.165 2°54.049 25.315913 0.966676 5.609698  
2002-08-12 07:00:02 51°14.157 2°54.023 25.039812 0.966676 5.609782  
2002-08-12 07:00:07 51°14.148 2°53.997 24.887008 0.966467 5.60856  
2002-08-12 07:00:12 51°14.14 2°53.97 24.887008 0.966467 5.60856  
2002-08-12 07:00:17 51°14.131 2°53.943 25.255316 0.966781 5.610603  
2002-08-12 07:00:22 51°14.122 2°53.915 25.105864 0.966571 5.609381  
2002-08-12 07:00:27 51°14.114 2°53.888 25.038831 0.966467 5.608728  
2002-08-12 07:00:32 51°14.105 2°53.859 25.165832 0.966676 5.610285  
2002-08-12 07:00:37 51°14.097 2°53.83 25.227745 0.966676 5.610369  
2002-08-12 07:00:42 51°14.089 2°53.802 25.227745 0.966676 5.610369  
2002-08-12 07:00:46 51°14.082 2°53.778 25.41467 0.966676 5.610369  
2002-08-12 07:00:52 51°14.07 2°53.748 24.828626 0.966571 5.609716  
2002-08-12 07:00:57 51°14.06 2°53.72 25.136231 0.966676 5.610537  
2002-08-12 07:01:02 51°14.051 2°53.691 25.104507 0.966676 5.610705  
2002-08-12 07:01:06 51°14.044 2°53.667 24.737974 0.966676 5.610789  
2002-08-12 07:01:12 51°14.033 2°53.632 24.737974 0.966676 5.610789  
2002-08-12 07:01:17 51°14.024 2°53.602 25.201292 0.966676 5.610873  
2002-08-12 07:01:22 51°14.015 2°53.572 25.446597 0.966676 5.611041  
2002-08-12 07:01:27 51°14.006 2°53.542 24.985629 0.966571 5.610556  
2002-08-12 07:01:32 51°13.997 2°53.513 25.264416 0.966781 5.611862  
2002-08-12 07:01:37 51°13.988 2°53.483 25.358399 0.966571 5.61064  
2002-08-12 07:01:42 51°13.979 2°53.454 25.358399 0.966571 5.61064  
2002-08-12 07:01:46 51°13.971 2°53.431 24.677995 0.966781 5.612114  
2002-08-12 07:01:52 51°13.96 2°53.396 24.956408 0.966676 5.611629  
2002-08-12 07:01:57 51°13.95 2°53.366 25.11389 0.966676 5.611713  
2002-08-12 07:02:02 51°13.941 2°53.336 25.022384 0.966676 5.611713  
2002-08-12 07:02:07 51°13.932 2°53.307 25.208857 0.966676 5.611796  
2002-08-12 07:02:12 51°13.923 2°53.278 25.208857 0.966676 5.611796  
2002-08-12 07:02:17 51°13.914 2°53.249 24.903259 0.966676 5.61188  
2002-08-12 07:02:22 51°13.905 2°53.22 24.926571 0.966885 5.613439  
2002-08-12 07:02:26 51°13.897 2°53.196 25.271372 0.966885 5.613523  
2002-08-12 07:02:30 51°13.89 2°53.172 24.903335 0.966781 5.612954  
2002-08-12 07:02:36 51°13.878 2°53.136 24.936694 0.966885 5.613775  
2002-08-12 07:02:41 51°13.869 2°53.106 24.936694 0.966885 5.613775  
2002-08-12 07:02:46 51°13.86 2°53.076 25.061798 0.96699 5.614596  
2002-08-12 07:02:52 51°13.849 2°53.04 25.151748 0.966676 5.61272  
2002-08-12 07:02:57 51°13.84 2°53.01 25.092297 0.966781 5.613542  
2002-08-12 07:03:02 51°13.831 2°52.98 24.721611 0.96699 5.614932  
2002-08-12 07:03:07 51°13.821 2°52.951 24.968038 0.966885 5.614363  
2002-08-12 07:03:12 51°13.812 2°52.921 24.968038 0.966885 5.614363  
2002-08-12 07:03:17 51°13.802 2°52.891 25.220784 0.966781 5.613878  
2002-08-12 07:03:22 51°13.793 2°52.862 25.222891 0.966885 5.614699  
2002-08-12 07:03:26 51°13.785 2°52.838 24.662603 0.967095 5.61609  
2002-08-12 07:03:32 51°13.774 2°52.802 24.819358 0.966885 5.614952  
2002-08-12 07:03:37 51°13.764 2°52.773 25.500178 0.966885 5.615036  
2002-08-12 07:03:42 51°13.755 2°52.743 25.500178 0.966885 5.615036  
2002-08-12 07:03:47 51°13.745 2°52.714 25.066587 0.96699 5.615773  
2002-08-12 07:03:52 51°13.736 2°52.684 24.973965 0.96699 5.615941  
2002-08-12 07:03:57 51°13.726 2°52.654 25.193088 0.96699 5.616109  
2002-08-12 07:04:02 51°13.717 2°52.625 25.288929 0.96699 5.616362  
2002-08-12 07:04:06 51°13.71 2°52.601 24.671437 0.966885 5.615792  
2002-08-12 07:04:12 51°13.698 2°52.565 24.671437 0.966885 5.615792  
2002-08-12 07:04:17 51°13.689 2°52.536 24.732103 0.967095 5.617183  
2002-08-12 07:04:22 51°13.68 2°52.506 25.103942 0.967199 5.618005  
2002-08-12 07:04:26 51°13.672 2°52.482 24.983817 0.96699 5.616782  
2002-08-12 07:04:32 51°13.661 2°52.447 25.228121 0.967199 5.618174  
2002-08-12 07:04:37 51°13.652 2°52.417 24.20568 0.967095 5.617772  
2002-08-12 07:04:42 51°13.643 2°52.387 24.20568 0.967095 5.617772  
2002-08-12 07:04:47 51°13.634 2°52.358 25.014575 0.967199 5.61851  
2002-08-12 07:04:52 51°13.624 2°52.328 24.891544 0.967304 5.619416  
2002-08-12 07:04:57 51°13.615 2°52.298 24.801007 0.967095 5.618193  
2002-08-12 07:05:02 51°13.606 2°52.268 24.985025 0.967095 5.618277  
2002-08-12 07:05:06 51°13.598 2°52.245 25.08276 0.967408 5.620491  
2002-08-12 07:05:12 51°13.587 2°52.209 25.08276 0.967408 5.620491  
2002-08-12 07:05:17 51°13.577 2°52.18 24.771712 0.967408 5.620659  
2002-08-12 07:05:22 51°13.568 2°52.15 24.954444 0.967513 5.621397  
2002-08-12 07:05:26 51°13.56 2°52.127 25.23651 0.967095 5.619035  
2002-08-12 07:05:32 51°13.549 2°52.092 24.832939 0.967304 5.620511  
2002-08-12 07:05:37 51°13.54 2°52.062 25.393015 0.967304 5.620595  
2002-08-12 07:05:42 51°13.53 2°52.032 25.393015 0.967304 5.620595  
2002-08-12 07:05:46 51°13.523 2°52.009 24.744109 0.967408 5.621417  
2002-08-12 07:05:52 51°13.512 2°51.973 24.590912 0.967513 5.622239  
2002-08-12 07:05:57 51°13.503 2°51.944 25.150016 0.967304 5.6211  
2002-08-12 07:06:02 51°13.494 2°51.914 24.997179 0.967408 5.621922  
2002-08-12 07:06:06 51°13.486 2°51.89 24.934277 0.967408 5.622007  
2002-08-12 07:06:12 51°13.475 2°51.855 24.934277 0.967408 5.622007  
2002-08-12 07:06:17 51°13.466 2°51.825 25.117771 0.967513 5.622829  
2002-08-12 07:06:22 51°13.457 2°51.796 25.491969 0.967513 5.622998  
2002-08-12 07:06:26 51°13.449 2°51.772 25.277688 0.967618 5.623736  
2002-08-12 07:06:32 51°13.439 2°51.736 25.24234 0.967618 5.62382  
2002-08-12 07:06:37 51°13.429 2°51.706 25.277613 0.967618 5.623989  
2002-08-12 07:06:42 51°13.42 2°51.676 25.277613 0.967618 5.623989  
2002-08-12 07:06:47 51°13.411 2°51.647 25.184242 0.967618 5.623989  
2002-08-12 07:06:52 51°13.402 2°51.617 24.845874 0.967513 5.623419  
2002-08-12 07:06:57 51°13.392 2°51.588 24.849012 0.967618 5.624241  
2002-08-12 07:07:02 51°13.383 2°51.558 24.81898 0.967513 5.623587  
2002-08-12 07:07:06 51°13.376 2°51.534 24.973436 0.967722 5.625148  
2002-08-12 07:07:12 51°13.365 2°51.499 24.973436 0.967722 5.625148  
2002-08-12 07:07:17 51°13.355 2°51.47 25.252345 0.967618 5.624494  
2002-08-12 07:07:22 51°13.345 2°51.44 25.066813 0.967618 5.624663  
2002-08-12 07:07:27 51°13.336 2°51.411 24.511779 0.967618 5.624832  
2002-08-12 07:07:32 51°13.326 2°51.382 25.347357 0.967722 5.625654  
2002-08-12 07:07:37 51°13.315 2°51.353 24.574705 0.967827 5.626477  
2002-08-12 07:07:42 51°13.305 2°51.324 24.574705 0.967827 5.626477  
2002-08-12 07:07:46 51°13.297 2°51.301 24.76149 0.967618 5.625422  
2002-08-12 07:07:52 51°13.285 2°51.266 24.979741 0.967722 5.626245  
2002-08-12 07:07:57 51°13.275 2°51.237 25.199486 0.967618 5.625759  
2002-08-12 07:08:02 51°13.265 2°51.208 25.352615 0.967722 5.626582  
2002-08-12 07:08:07 51°13.255 2°51.179 25.16779 0.967932 5.628059  
2002-08-12 07:08:12 51°13.245 2°51.15 25.16779 0.967932 5.628059  
2002-08-12 07:08:17 51°13.235 2°51.12 25.479035 0.967827 5.627489  
2002-08-12 07:08:22 51°13.225 2°51.092 24.3933 0.967827 5.627743  
2002-08-12 07:08:26 51°13.218 2°51.068 25.478735 0.967827 5.627827  
2002-08-12 07:08:32 51°13.206 2°51.032 24.771788 0.967827 5.627911  
2002-08-12 07:08:37 51°13.196 2°51.003 24.956408 0.967932 5.628819  
2002-08-12 07:08:42 51°13.186 2°50.974 24.956408 0.967932 5.628819  
2002-08-12 07:08:47 51°13.176 2°50.945 25.082308 0.967827 5.628249  
2002-08-12 07:08:52 51°13.167 2°50.916 25.269191 0.967932 5.628988  
2002-08-12 07:08:57 51°13.156 2°50.887 25.021668 0.968036 5.629727  
2002-08-12 07:09:02 51°13.147 2°50.857 24.960071 0.967827 5.628587  
2002-08-12 07:09:06 51°13.138 2°50.834 24.871888 0.967932 5.62941  
2002-08-12 07:09:12 51°13.127 2°50.799 24.871888 0.967932 5.62941  
2002-08-12 07:09:17 51°13.116 2°50.77 24.996386 0.967932 5.629663  
2002-08-12 07:09:22 51°13.107 2°50.741 25.609878 0.967827 5.629178  
2002-08-12 07:09:27 51°13.096 2°50.712 25.058292 0.967932 5.629832  
2002-08-12 07:09:32 51°13.087 2°50.682 24.99616 0.967827 5.629346  
2002-08-12 07:09:37 51°13.077 2°50.653 24.934994 0.967932 5.63017  
2002-08-12 07:09:42 51°13.067 2°50.624 24.934994 0.967932 5.63017  
2002-08-12 07:09:47 51°13.057 2°50.595 24.997858 0.968141 5.631648  
2002-08-12 07:09:52 51°13.048 2°50.565 25.149564 0.968036 5.631078  
2002-08-12 07:09:57 51°13.039 2°50.535 25.308923 0.968036 5.631247  
2002-08-12 07:10:02 51°13.029 2°50.506 25.279944 0.968036 5.631331  
2002-08-12 07:10:06 51°13.02 2°50.483 24.567151 0.968036 5.631416  
2002-08-12 07:10:10 51°13.012 2°50.459 24.567151 0.968036 5.631416  
2002-08-12 07:10:17 51°12.998 2°50.419 25.017216 0.968036 5.631754  
2002-08-12 07:10:22 51°12.988 2°50.39 24.757212 0.967932 5.631184  
2002-08-12 07:10:27 51°12.978 2°50.36 25.068849 0.968141 5.632662  
2002-08-12 07:10:32 51°12.968 2°50.331 24.698423 0.968036 5.632092  
2002-08-12 07:10:37 51°12.958 2°50.301 25.193916 0.967932 5.631437  
2002-08-12 07:10:42 51°12.948 2°50.272 25.193916 0.967932 5.631437  
2002-08-12 07:10:46 51°12.941 2°50.249 24.884892 0.968036 5.632176  
2002-08-12 07:10:52 51°12.929 2°50.214 25.167376 0.968036 5.632345  
2002-08-12 07:10:57 51°12.919 2°50.184 24.916711 0.968245 5.633655  
2002-08-12 07:11:02 51°12.909 2°50.155 24.886517 0.968036 5.632514  
2002-08-12 07:11:06 51°12.901 2°50.132 24.858995 0.968141 5.633338  
2002-08-12 07:11:12 51°12.889 2°50.096 24.858995 0.968141 5.633338  
2002-08-12 07:11:17 51°12.879 2°50.067 25.184919 0.968141 5.633338  
2002-08-12 07:11:22 51°12.869 2°50.038 24.768267 0.968141 5.633423  
2002-08-12 07:11:26 51°12.861 2°50.015 25.35577 0.968141 5.633592  
2002-08-12 07:11:32 51°12.849 2°49.979 24.737368 0.968141 5.633676  
2002-08-12 07:11:37 51°12.839 2°49.95 25.015782 0.968245 5.634585  
2002-08-12 07:11:42 51°12.829 2°49.92 25.015782 0.968245 5.634585  
2002-08-12 07:11:47 51°12.819 2°49.891 24.831123 0.968141 5.63393  
2002-08-12 07:11:52 51°12.81 2°49.862 25.112421 0.968245 5.634754  
2002-08-12 07:11:57 51°12.8 2°49.833 24.958183 0.968245 5.634838  
2002-08-12 07:12:02 51°12.79 2°49.804 24.9888 0.968245 5.634838  
2002-08-12 07:12:06 51°12.783 2°49.781 24.463057 0.968245 5.635092  
2002-08-12 07:12:12 51°12.771 2°49.747 24.463057 0.968245 5.635092  
2002-08-12 07:12:17 51°12.762 2°49.717 24.759862 0.968245 5.635261  
2002-08-12 07:12:22 51°12.751 2°49.688 25.117583 0.968455 5.636571  
2002-08-12 07:12:26 51°12.743 2°49.664 24.96109 0.968245 5.635431  
2002-08-12 07:12:32 51°12.731 2°49.629 24.531267 0.968246 5.635684  
2002-08-12 07:12:37 51°12.721 2°49.6 25.240159 0.968455 5.637079  
2002-08-12 07:12:42 51°12.711 2°49.571 25.240159 0.968455 5.637079  
2002-08-12 07:12:46 51°12.704 2°49.547 25.429641 0.968246 5.635938  
2002-08-12 07:12:52 51°12.692 2°49.512 24.814818 0.968246 5.636023  
2002-08-12 07:12:57 51°12.682 2°49.483 24.811489 0.96835 5.636847  
2002-08-12 07:13:02 51°12.672 2°49.453 24.872228 0.968246 5.636361  
2002-08-12 07:13:07 51°12.662 2°49.424 24.473359 0.968141 5.635791  
2002-08-12 07:13:12 51°12.652 2°49.395 24.473359 0.968141 5.635791  
2002-08-12 07:13:17 51°12.643 2°49.366 24.38173 0.96835 5.637186  
2002-08-12 07:13:22 51°12.634 2°49.338 25.219994 0.96835 5.63727  
2002-08-12 07:13:26 51°12.626 2°49.314 25.002311 0.96835 5.63744  
2002-08-12 07:13:32 51°12.613 2°49.279 24.848634 0.968246 5.636869  
2002-08-12 07:13:37 51°12.603 2°49.249 24.633215 0.968141 5.636468  
2002-08-12 07:13:42 51°12.592 2°49.22 24.633215 0.968141 5.636468  
2002-08-12 07:13:47 51°12.582 2°49.191 24.91297 0.96835 5.637863  
2002-08-12 07:13:52 51°12.572 2°49.161 24.853248 0.968246 5.637377  
2002-08-12 07:13:57 51°12.563 2°49.132 25.037889 0.96835 5.638202  
2002-08-12 07:14:02 51°12.553 2°49.103 24.852907 0.968455 5.638772  
2002-08-12 07:14:07 51°12.543 2°49.074 24.667684 0.96835 5.638202  
2002-08-12 07:14:12 51°12.534 2°49.045 24.667684 0.96835 5.638202  
2002-08-12 07:14:17 51°12.524 2°49.015 25.104583 0.968246 5.63797  
2002-08-12 07:14:22 51°12.514 2°48.986 24.950215 0.96835 5.63854  
2002-08-12 07:14:26 51°12.506 2°48.962 25.444797 0.96835 5.638625  
2002-08-12 07:14:32 51°12.495 2°48.927 24.705736 0.968455 5.639365  
2002-08-12 07:14:37 51°12.484 2°48.898 24.769592 0.96835 5.638964  
2002-08-12 07:14:42 51°12.474 2°48.869 24.769592 0.96835 5.638964  
2002-08-12 07:14:46 51°12.467 2°48.846 25.292875 0.96835 5.639049  
2002-08-12 07:14:52 51°12.455 2°48.81 25.109971 0.968455 5.639873  
2002-08-12 07:14:57 51°12.445 2°48.78 24.803429 0.968455 5.639958  
2002-08-12 07:15:02 51°12.435 2°48.751 24.634428 0.968455 5.640127  
2002-08-12 07:15:06 51°12.427 2°48.727 24.6797 0.96835 5.639557  
2002-08-12 07:15:12 51°12.415 2°48.692 24.6797 0.96835 5.639557  
2002-08-12 07:15:17 51°12.406 2°48.662 24.837553 0.96835 5.639557  
2002-08-12 07:15:22 51°12.396 2°48.632 24.773529 0.96835 5.639896  
2002-08-12 07:15:26 51°12.388 2°48.609 24.653238 0.96835 5.639896  
2002-08-12 07:15:32 51°12.376 2°48.573 25.233689 0.96835 5.639896  
2002-08-12 07:15:37 51°12.366 2°48.544 24.750434 0.968246 5.639495  
2002-08-12 07:15:42 51°12.356 2°48.514 24.750434 0.968246 5.639495  
2002-08-12 07:15:46 51°12.348 2°48.491 25.216947 0.968455 5.640551  
2002-08-12 07:15:52 51°12.336 2°48.456 24.66048 0.96835 5.640235  
2002-08-12 07:15:56 51°12.328 2°48.432 25.524836 0.96835 5.640489  
2002-08-12 07:16:02 51°12.316 2°48.397 25.096857 0.96835 5.640489  
2002-08-12 07:16:06 51°12.308 2°48.373 24.973021 0.96835 5.640659  
2002-08-12 07:16:12 51°12.296 2°48.338 24.973021 0.96835 5.640659  
2002-08-12 07:16:17 51°12.286 2°48.309 25.286034 0.968246 5.640088  
2002-08-12 07:16:22 51°12.276 2°48.279 25.068246 0.96835 5.640828  
2002-08-12 07:16:26 51°12.268 2°48.256 25.007217 0.968455 5.641568  
2002-08-12 07:16:32 51°12.256 2°48.221 25.068246 0.968246 5.640427  
2002-08-12 07:16:37 51°12.246 2°48.192 24.387591 0.96835 5.641252  
2002-08-12 07:16:42 51°12.235 2°48.163 24.387591 0.96835 5.641252  
2002-08-12 07:16:46 51°12.227 2°48.139 24.918751 0.968246 5.640681  
2002-08-12 07:16:52 51°12.215 2°48.104 24.948893 0.96835 5.641167  
2002-08-12 07:16:57 51°12.205 2°48.075 24.672119 0.96835 5.641422  
2002-08-12 07:17:02 51°12.195 2°48.046 25.017706 0.96835 5.641591  
2002-08-12 07:17:06 51°12.187 2°48.022 25.047054 0.96835 5.641422  
2002-08-12 07:17:10 51°12.179 2°47.999 25.047054 0.96835 5.641422  
2002-08-12 07:17:17 51°12.164 2°47.958 24.957654 0.96835 5.641591  
2002-08-12 07:17:22 51°12.154 2°47.928 25.29731 0.968455 5.642416  
2002-08-12 07:17:26 51°12.146 2°47.905 25.390312 0.968455 5.642416  
2002-08-12 07:17:32 51°12.134 2°47.87 25.269906 0.968455 5.642416  
2002-08-12 07:17:37 51°12.124 2°47.84 24.682429 0.968455 5.642501  
2002-08-12 07:17:42 51°12.114 2°47.81 24.682429 0.968455 5.642501  
2002-08-12 07:17:46 51°12.106 2°47.787 24.961166 0.968455 5.642671  
2002-08-12 07:17:52 51°12.094 2°47.752 24.962638 0.968455 5.642671  
2002-08-12 07:17:57 51°12.083 2°47.723 24.936845 0.968455 5.642756  
2002-08-12 07:18:02 51°12.073 2°47.694 24.658546 0.96835 5.64227  
2002-08-12 07:18:07 51°12.063 2°47.665 24.567682 0.968246 5.641868  
2002-08-12 07:18:12 51°12.052 2°47.635 24.567682 0.968246 5.641868  
2002-08-12 07:18:17 51°12.042 2°47.606 25.18635 0.968455 5.643095  
2002-08-12 07:18:22 51°12.032 2°47.577 25.343451 0.968455 5.64318  
2002-08-12 07:18:26 51°12.024 2°47.554 24.910552 0.96835 5.642694  
2002-08-12 07:18:32 51°12.012 2°47.519 25.06817 0.968455 5.643265  
2002-08-12 07:18:37 51°12.002 2°47.489 25.375409 0.96835 5.642609  
2002-08-12 07:18:42 51°11.991 2°47.46 25.375409 0.96835 5.642609  
2002-08-12 07:18:46 51°11.983 2°47.437 25.253134 0.96835 5.642863  
2002-08-12 07:18:52 51°11.971 2°47.402 24.789995 0.96835 5.642779  
2002-08-12 07:18:56 51°11.963 2°47.378 25.255805 0.968246 5.642208  
2002-08-12 07:19:02 51°11.95 2°47.344 25.196174 0.968455 5.643519  
2002-08-12 07:19:06 51°11.942 2°47.32 24.82613 0.968246 5.642632  
2002-08-12 07:19:12 51°11.93 2°47.285 24.82613 0.968246 5.642632  
2002-08-12 07:19:17 51°11.92 2°47.256 25.228497 0.968455 5.643774  
2002-08-12 07:19:22 51°11.91 2°47.227 24.737823 0.96835 5.643033  
2002-08-12 07:19:26 51°11.901 2°47.204 24.862436 0.968455 5.643774  
2002-08-12 07:19:32 51°11.889 2°47.168 24.675341 0.96835 5.643542  
2002-08-12 07:19:37 51°11.879 2°47.139 24.677919 0.968455 5.644113  
2002-08-12 07:19:42 51°11.869 2°47.11 24.677919 0.968455 5.644113  
2002-08-12 07:19:46 51°11.861 2°47.087 24.927817 0.96835 5.643712  
2002-08-12 07:19:52 51°11.848 2°47.052 24.957239 0.96835 5.643627  
2002-08-12 07:19:57 51°11.838 2°47.023 24.93016 0.96835 5.643797  
2002-08-12 07:20:02 51°11.828 2°46.993 25.271522 0.96835 5.643797  
2002-08-12 07:20:06 51°11.82 2°46.97 25.366698 0.96835 5.643882  
2002-08-12 07:20:12 51°11.808 2°46.935 25.366698 0.96835 5.643882  
2002-08-12 07:20:17 51°11.798 2°46.905 24.778602 0.96835 5.644221  
2002-08-12 07:20:22 51°11.788 2°46.876 24.47104 0.968455 5.644792  
2002-08-12 07:20:27 51°11.778 2°46.847 24.874837 0.96835 5.644221  
2002-08-12 07:20:32 51°11.767 2°46.818 25.218414 0.968246 5.64382  
2002-08-12 07:20:37 51°11.757 2°46.789 25.497141 0.968246 5.643905  
2002-08-12 07:20:42 51°11.747 2°46.76 25.497141 0.968246 5.643905  
2002-08-12 07:20:46 51°11.739 2°46.737 25.032909 0.968246 5.644075  
2002-08-12 07:20:52 51°11.727 2°46.703 25.033815 0.96835 5.644816  
2002-08-12 07:20:57 51°11.717 2°46.675 24.972002 0.96835 5.644901  
2002-08-12 07:21:02 51°11.707 2°46.646 24.818185 0.968246 5.644499  
2002-08-12 07:21:06 51°11.699 2°46.624 24.851357 0.96835 5.64507  
2002-08-12 07:21:12 51°11.687 2°46.59 24.851357 0.96835 5.64507  
2002-08-12 07:21:17 51°11.678 2°46.56 24.697172 0.96835 5.64524  
2002-08-12 07:21:22 51°11.668 2°46.532 24.779359 0.968246 5.644499  
2002-08-12 07:21:26 51°11.66 2°46.509 25.103414 0.968246 5.644669  
2002-08-12 07:21:32 51°11.649 2°46.474 25.04166 0.968455 5.645896  
2002-08-12 07:21:37 51°11.639 2°46.446 25.380026 0.968246 5.644754  
2002-08-12 07:21:42 51°11.629 2°46.417 25.380026 0.968246 5.644754  
2002-08-12 07:21:46 51°11.621 2°46.395 24.76539 0.968246 5.644754  
2002-08-12 07:21:52 51°11.61 2°46.362 25.109029 0.968246 5.645349  
2002-08-12 07:21:57 51°11.6 2°46.334 24.953916 0.968141 5.644523  
2002-08-12 07:22:02 51°11.59 2°46.306 25.171066 0.968246 5.645264  
2002-08-12 07:22:06 51°11.582 2°46.283 24.709336 0.968246 5.645603  
2002-08-12 07:22:12 51°11.571 2°46.249 24.709336 0.968246 5.645603  
2002-08-12 07:22:17 51°11.561 2°46.22 25.415759 0.968246 5.645688  
2002-08-12 07:22:22 51°11.552 2°46.192 24.739338 0.968037 5.644631  
2002-08-12 07:22:26 51°11.544 2°46.17 24.9288 0.968246 5.645773  
2002-08-12 07:22:32 51°11.532 2°46.136 24.900425 0.968037 5.644886  
2002-08-12 07:22:37 51°11.523 2°46.108 25.02544 0.968141 5.645372  
2002-08-12 07:22:42 51°11.513 2°46.08 25.02544 0.968141 5.645372  
2002-08-12 07:22:46 51°11.505 2°46.057 25.300392 0.968037 5.645056  
2002-08-12 07:22:52 51°11.494 2°46.023 25.056972 0.968141 5.645882  
2002-08-12 07:22:57 51°11.484 2°45.995 24.413998 0.968246 5.646283  
2002-08-12 07:23:02 51°11.475 2°45.966 25.212469 0.968037 5.645565  
2002-08-12 07:23:06 51°11.467 2°45.944 24.873362 0.968141 5.646137  
2002-08-12 07:23:12 51°11.455 2°45.91 24.873362 0.968141 5.646137  
2002-08-12 07:23:17 51°11.446 2°45.882 25.40086 0.968037 5.64565  
2002-08-12 07:23:22 51°11.436 2°45.854 25.062666 0.968141 5.646477  
2002-08-12 07:23:26 51°11.429 2°45.831 24.968264 0.967932 5.645419  
2002-08-12 07:23:32 51°11.417 2°45.798 24.908285 0.968141 5.646732  
2002-08-12 07:23:37 51°11.407 2°45.77 24.881565 0.968037 5.64616  
2002-08-12 07:23:42 51°11.397 2°45.741 24.881565 0.968037 5.64616  
2002-08-12 07:23:47 51°11.387 2°45.713 24.911459 0.967932 5.645844  
2002-08-12 07:23:52 51°11.377 2°45.685 25.067228 0.968037 5.646585  
2002-08-12 07:23:57 51°11.367 2°45.657 25.315424 0.967932 5.645929  
2002-08-12 07:24:02 51°11.358 2°45.629 25.286372 0.967932 5.645759  
2002-08-12 07:24:06 51°11.35 2°45.606 24.735702 0.967932 5.646099  
2002-08-12 07:24:12 51°11.338 2°45.572 24.735702 0.967932 5.646099  
2002-08-12 07:24:17 51°11.329 2°45.543 24.738883 0.967827 5.645698  
2002-08-12 07:24:22 51°11.319 2°45.514 25.048298 0.967932 5.646779  
2002-08-12 07:24:26 51°11.311 2°45.491 24.803959 0.967932 5.646779  
2002-08-12 07:24:32 51°11.3 2°45.457 25.516555 0.967827 5.646293  
2002-08-12 07:24:37 51°11.29 2°45.429 24.808046 0.967932 5.646609  
2002-08-12 07:24:42 51°11.281 2°45.401 24.808046 0.967932 5.646609  
2002-08-12 07:24:46 51°11.273 2°45.379 24.964375 0.967827 5.645868  
2002-08-12 07:24:52 51°11.261 2°45.345 25.181193 0.967723 5.645976  
2002-08-12 07:24:57 51°11.252 2°45.316 24.751759 0.967932 5.647629  
2002-08-12 07:25:02 51°11.242 2°45.287 24.842281 0.967827 5.647143  
2002-08-12 07:25:07 51°11.233 2°45.259 25.215517 0.967827 5.646973  
2002-08-12 07:25:12 51°11.223 2°45.231 25.215517 0.967827 5.646973  
2002-08-12 07:25:17 51°11.213 2°45.203 25.154761 0.967723 5.646061  
2002-08-12 07:25:22 51°11.204 2°45.176 25.064777 0.967723 5.646231  
2002-08-12 07:25:26 51°11.196 2°45.153 24.940056 0.967723 5.646742  
2002-08-12 07:25:32 51°11.184 2°45.119 24.883606 0.967618 5.646935  
2002-08-12 07:25:37 51°11.174 2°45.09 25.065267 0.967514 5.646619  
2002-08-12 07:25:42 51°11.165 2°45.062 25.065267 0.967514 5.646619  
2002-08-12 07:25:46 51°11.157 2°45.04 25.284305 0.967618 5.646595  
2002-08-12 07:25:52 51°11.146 2°45.006 24.602979 0.967723 5.647252  
2002-08-12 07:25:56 51°11.138 2°44.983 25.256181 0.967618 5.64668  
2002-08-12 07:26:02 51°11.127 2°44.949 24.979212 0.967618 5.646935  
2002-08-12 07:26:06 51°11.119 2°44.927 24.76202 0.967618 5.647616  
2002-08-12 07:26:12 51°11.107 2°44.893 24.76202 0.967618 5.647616  
2002-08-12 07:26:17 51°11.097 2°44.865 24.513717 0.967514 5.64713  
2002-08-12 07:26:22 51°11.088 2°44.837 25.228196 0.967409 5.646558  
2002-08-12 07:26:26 51°11.08 2°44.814 25.011367 0.967409 5.646813  
2002-08-12 07:26:32 51°11.068 2°44.78 24.765087 0.967723 5.648528  
2002-08-12 07:26:37 51°11.059 2°44.752 24.578766 0.967409 5.646558  
2002-08-12 07:26:42 51°11.049 2°44.724 24.578766 0.967409 5.646558  
2002-08-12 07:26:46 51°11.041 2°44.701 24.982723 0.967514 5.647385  
2002-08-12 07:26:52 51°11.029 2°44.667 24.488829 0.967409 5.647324  
2002-08-12 07:26:57 51°11.019 2°44.639 24.803429 0.967514 5.648066  
2002-08-12 07:27:02 51°11.01 2°44.61 24.524316 0.967305 5.647263  
2002-08-12 07:27:06 51°11.002 2°44.587 24.773832 0.967514 5.648151  
2002-08-12 07:27:12 51°10.991 2°44.554 24.773832 0.967514 5.648151  
2002-08-12 07:27:17 51°10.982 2°44.526 24.774665 0.967409 5.647324  
2002-08-12 07:27:22 51°10.971 2°44.498 24.897591 0.967409 5.647068  
2002-08-12 07:27:26 51°10.964 2°44.476 24.962412 0.9672 5.646521  
2002-08-12 07:27:32 51°10.951 2°44.442 24.43606 0.967305 5.647944  
2002-08-12 07:27:37 51°10.942 2°44.413 24.871094 0.967305 5.648369  
2002-08-12 07:27:42 51°10.932 2°44.385 24.871094 0.967305 5.648369  
2002-08-12 07:27:47 51°10.923 2°44.356 25.149941 0.9672 5.647542  
2002-08-12 07:27:52 51°10.914 2°44.328 24.751456 0.967305 5.647348  
2002-08-12 07:27:57 51°10.905 2°44.3 25.091844 0.9672 5.646606  
2002-08-12 07:28:02 51°10.895 2°44.272 25.063382 0.967305 5.647518  
2002-08-12 07:28:07 51°10.885 2°44.244 25.218903 0.9672 5.647797  
2002-08-12 07:28:12 51°10.875 2°44.216 25.218903 0.9672 5.647797  
2002-08-12 07:28:17 51°10.865 2°44.187 24.631659 0.967305 5.649051  
2002-08-12 07:28:22 51°10.856 2°44.158 24.570036 0.9672 5.648734  
2002-08-12 07:28:26 51°10.849 2°44.136 24.631963 0.967095 5.647566  
2002-08-12 07:28:32 51°10.838 2°44.102 24.819283 0.9672 5.647457  
2002-08-12 07:28:37 51°10.828 2°44.074 25.036946 0.967095 5.64714  
2002-08-12 07:28:42 51°10.819 2°44.046 25.036946 0.967095 5.64714  
2002-08-12 07:28:46 51°10.811 2°44.023 25.039397 0.9672 5.648479  
2002-08-12 07:28:52 51°10.8 2°43.989 24.824049 0.967095 5.648759  
2002-08-12 07:28:57 51°10.791 2°43.96 24.66939 0.967095 5.648759  
2002-08-12 07:29:02 51°10.781 2°43.932 24.91826 0.967095 5.648333  
2002-08-12 07:29:06 51°10.774 2°43.91 24.795482 0.967095 5.647992  
2002-08-12 07:29:12 51°10.762 2°43.875 24.795482 0.967095 5.647992  
2002-08-12 07:29:17 51°10.753 2°43.847 24.952745 0.967095 5.648247  
2002-08-12 07:29:22 51°10.744 2°43.819 24.76804 0.967095 5.648673  
2002-08-12 07:29:27 51°10.735 2°43.791 24.675265 0.966991 5.648442  
2002-08-12 07:29:32 51°10.725 2°43.763 24.364982 0.966991 5.648527  
2002-08-12 07:29:37 51°10.715 2°43.735 24.427959 0.966886 5.648211  
2002-08-12 07:29:42 51°10.705 2°43.707 24.427959 0.966886 5.648211  
2002-08-12 07:29:46 51°10.697 2°43.684 25.142559 0.966991 5.649209  
2002-08-12 07:29:52 51°10.685 2°43.651 24.926571 0.966886 5.648296  
2002-08-12 07:29:57 51°10.676 2°43.624 24.897855 0.966782 5.647639  
2002-08-12 07:30:02 51°10.665 2°43.596 25.082157 0.966886 5.648211  
2002-08-12 07:30:06 51°10.657 2°43.574 25.208029 0.966782 5.64815  
2002-08-12 07:30:12 51°10.646 2°43.54 25.208029 0.966782 5.64815  
2002-08-12 07:30:17 51°10.636 2°43.513 25.058292 0.966782 5.648661  
2002-08-12 07:30:22 51°10.627 2°43.485 24.654717 0.966782 5.649002  
2002-08-12 07:30:26 51°10.62 2°43.462 24.810392 0.966782 5.648406  
2002-08-12 07:30:32 51°10.609 2°43.428 25.090902 0.966677 5.647493  
2002-08-12 07:30:37 51°10.6 2°43.399 24.999896 0.966677 5.647919  
2002-08-12 07:30:42 51°10.592 2°43.37 24.999896 0.966677 5.647919  
2002-08-12 07:30:46 51°10.586 2°43.347 25.029213 0.966782 5.648832  
2002-08-12 07:30:52 51°10.576 2°43.313 24.967962 0.966677 5.648174  
2002-08-12 07:30:57 51°10.569 2°43.284 24.846592 0.966677 5.648174  
2002-08-12 07:31:02 51°10.561 2°43.254 24.878655 0.966677 5.648345  
2002-08-12 07:31:06 51°10.555 2°43.23 24.879033 0.966677 5.64843  
2002-08-12 07:31:12 51°10.546 2°43.195 24.879033 0.966677 5.64843  
2002-08-12 07:31:17 51°10.539 2°43.166 25.034531 0.966677 5.64843  
2002-08-12 07:31:22 51°10.531 2°43.137 25.160033 0.966572 5.647687  
2002-08-12 07:31:26 51°10.524 2°43.114 24.943606 0.966468 5.647541  
2002-08-12 07:31:32 51°10.514 2°43.08 24.603776 0.966468 5.648223  
2002-08-12 07:31:37 51°10.505 2°43.051 24.914519 0.966572 5.649136  
2002-08-12 07:31:42 51°10.496 2°43.023 24.914519 0.966572 5.649136  
2002-08-12 07:31:46 51°10.489 2°43.001 25.071036 0.966363 5.647992  
2002-08-12 07:31:52 51°10.478 2°42.968 24.575388 0.966572 5.649307  
2002-08-12 07:31:57 51°10.468 2°42.94 25.135063 0.966363 5.648077  
2002-08-12 07:32:02 51°10.459 2°42.912 24.919846 0.966468 5.649332  
2002-08-12 07:32:06 51°10.452 2°42.89 24.890599 0.966363 5.649271  
2002-08-12 07:32:10 51°10.445 2°42.867 24.890599 0.966363 5.649271  
2002-08-12 07:32:17 51°10.433 2°42.828 24.922566 0.966259 5.648698  
2002-08-12 07:32:22 51°10.425 2°42.799 24.706683 0.966363 5.64893  
2002-08-12 07:32:26 51°10.418 2°42.776 24.581803 0.966259 5.648187  
2002-08-12 07:32:32 51°10.409 2°42.741 24.890712 0.966154 5.647785  
2002-08-12 07:32:37 51°10.401 2°42.713 25.419849 0.966259 5.648357  
2002-08-12 07:32:42 51°10.394 2°42.684 25.419849 0.966259 5.648357  
2002-08-12 07:32:46 51°10.389 2°42.66 24.709904 0.966363 5.64893  
2002-08-12 07:32:52 51°10.381 2°42.624 24.9288 0.966259 5.648187  
2002-08-12 07:32:57 51°10.375 2°42.594 24.896948 0.966049 5.647042  
2002-08-12 07:33:02 51°10.368 2°42.565 24.837704 0.966259 5.648357  
2002-08-12 07:33:06 51°10.363 2°42.541 24.809294 0.966154 5.647699  
2002-08-12 07:33:12 51°10.355 2°42.506 24.809294 0.966154 5.647699  
2002-08-12 07:33:17 51°10.348 2°42.477 24.746041 0.966259 5.648442  
2002-08-12 07:33:22 51°10.341 2°42.447 24.656689 0.966049 5.647553  
2002-08-12 07:33:26 51°10.334 2°42.424 25.120635 0.966154 5.648552  
2002-08-12 07:33:32 51°10.324 2°42.39 25.029665 0.966154 5.648723  
2002-08-12 07:33:36 51°10.317 2°42.367 24.842621 0.966049 5.648406  
2002-08-12 07:33:42 51°10.307 2°42.334 24.842621 0.966049 5.648406  
2002-08-12 07:33:47 51°10.298 2°42.306 24.968113 0.96605 5.648747  
2002-08-12 07:33:52 51°10.289 2°42.278 24.691412 0.96605 5.649259  
2002-08-12 07:33:57 51°10.28 2°42.25 25.186952 0.96605 5.649686  
2002-08-12 07:34:02 51°10.271 2°42.222 24.941 0.965945 5.649284  
2002-08-12 07:34:06 51°10.265 2°42.199 24.784999 0.966154 5.65043  
2002-08-12 07:34:12 51°10.256 2°42.164 24.784999 0.966154 5.65043  
2002-08-12 07:34:17 51°10.249 2°42.134 25.281899 0.965945 5.649028  
2002-08-12 07:34:22 51°10.243 2°42.105 24.912894 0.965945 5.648857  
2002-08-12 07:34:26 51°10.238 2°42.081 24.944135 0.96584 5.648029  
2002-08-12 07:34:32 51°10.231 2°42.045 24.914746 0.96584 5.648029  
2002-08-12 07:34:37 51°10.225 2°42.015 25.63536 0.96584 5.648029  
2002-08-12 07:34:42 51°10.219 2°41.985 25.63536 0.96584 5.648029  
2002-08-12 07:34:46 51°10.214 2°41.961 24.916484 0.965945 5.648516  
2002-08-12 07:34:52 51°10.206 2°41.925 25.565441 0.96584 5.648029  
2002-08-12 07:34:57 51°10.199 2°41.895 25.196437 0.965945 5.648943  
2002-08-12 07:35:02 51°10.192 2°41.867 25.657056 0.96584 5.648199  
2002-08-12 07:35:06 51°10.186 2°41.843 25.505987 0.96584 5.64837  
2002-08-12 07:35:12 51°10.176 2°41.808 25.505987 0.96584 5.64837  
2002-08-12 07:35:17 51°10.167 2°41.78 25.567838 0.965736 5.648565  
2002-08-12 07:35:22 51°10.159 2°41.751 25.322563 0.96584 5.649565  
2002-08-12 07:35:26 51°10.152 2°41.729 25.354568 0.965736 5.649248  
2002-08-12 07:35:32 51°10.142 2°41.695 25.47896 0.965736 5.649419  
2002-08-12 07:35:37 51°10.133 2°41.667 24.737255 0.965631 5.648932  
2002-08-12 07:35:42 51°10.124 2°41.638 24.737255 0.965631 5.648932  
2002-08-12 07:35:46 51°10.117 2°41.615 25.202911 0.965736 5.649846  
2002-08-12 07:35:52 51°10.108 2°41.58 25.174115 0.965736 5.650102  
2002-08-12 07:35:57 51°10.101 2°41.55 25.080838 0.965631 5.649444  
2002-08-12 07:36:02 51°10.094 2°41.521 25.296408 0.965736 5.649846  
2002-08-12 07:36:06 51°10.09 2°41.496 25.084419 0.965631 5.648932  
2002-08-12 07:36:12 51°10.084 2°41.46 25.084419 0.965631 5.648932  
2002-08-12 07:36:17 51°10.079 2°41.429 25.390538 0.965527 5.648273  
2002-08-12 07:36:22 51°10.074 2°41.398 24.716193 0.965631 5.648846  
2002-08-12 07:36:25 51°10.072 2°41.38 25.366472 0.965527 5.648273  
2002-08-12 07:36:32 51°10.065 2°41.337 25.118864 0.965527 5.648188  
2002-08-12 07:36:37 51°10.06 2°41.306 25.337365 0.965527 5.648188  
2002-08-12 07:36:42 51°10.054 2°41.276 25.337365 0.965527 5.648188  
2002-08-12 07:36:46 51°10.05 2°41.252 25.276636 0.965527 5.64853  
2002-08-12 07:36:52 51°10.042 2°41.216 25.217473 0.965527 5.648615  
2002-08-12 07:36:57 51°10.035 2°41.186 25.522963 0.965422 5.648384  
2002-08-12 07:37:02 51°10.028 2°41.156 25.371391 0.965317 5.648152  
2002-08-12 07:37:06 51°10.023 2°41.132 25.248509 0.965527 5.649811  
2002-08-12 07:37:12 51°10.014 2°41.097 25.248509 0.965527 5.649811  
2002-08-12 07:37:17 51°10.007 2°41.067 25.372105 0.965317 5.649006  
2002-08-12 07:37:22 51°10 2°41.037 25.342286 0.965317 5.649092  
2002-08-12 07:37:27 51°9.993 2°41.007 25.773767 0.965317 5.649177  
2002-08-12 07:37:32 51°9.986 2°40.977 25.313921 0.965317 5.649262  
2002-08-12 07:37:37 51°9.98 2°40.947 25.375934 0.965213 5.648775  
2002-08-12 07:37:42 51°9.974 2°40.916 25.375934 0.965213 5.648775  
2002-08-12 07:37:46 51°9.969 2°40.892 25.928275 0.965317 5.649519  
2002-08-12 07:37:52 51°9.962 2°40.855 25.501414 0.965317 5.649519  
2002-08-12 07:37:57 51°9.956 2°40.825 25.194104 0.965317 5.649433  
2002-08-12 07:38:02 51°9.95 2°40.794 25.411481 0.965213 5.649031  
2002-08-12 07:38:06 51°9.944 2°40.77 24.925929 0.965317 5.64986  
2002-08-12 07:38:12 51°9.937 2°40.734 24.925929 0.965317 5.64986  
2002-08-12 07:38:17 51°9.929 2°40.704 25.352089 0.965108 5.648543  
2002-08-12 07:38:22 51°9.922 2°40.674 24.766109 0.965213 5.649458  
2002-08-12 07:38:26 51°9.916 2°40.65 22.770201 0.965213 5.6498  
2002-08-12 07:38:32 51°9.907 2°40.614 22.518815 0.965213 5.649629  
2002-08-12 07:38:37 51°9.901 2°40.584 22.269209 0.913652 5.380275  
2002-08-12 07:38:42 51°9.894 2°40.554 22.269209 0.913652 5.380275  
2002-08-12 07:38:46 51°9.888 2°40.53 20.912632 1.540821 9.741478  
2002-08-12 07:38:52 51°9.881 2°40.493 20.362085 1.796026 11.538226  
2002-08-12 07:38:57 51°9.874 2°40.463 20.056592 2.954021 19.750635  
2002-08-12 07:39:02 51°9.868 2°40.433 20.117579 3.806618 25.805836  
2002-08-12 07:39:07 51°9.861 2°40.402 19.937255 3.785431 25.574896  
2002-08-12 07:39:12 51°9.854 2°40.372 19.937255 3.785431 25.574896  
2002-08-12 07:39:17 51°9.847 2°40.342 20.402975 4.024412 27.66825  
2002-08-12 07:39:22 51°9.841 2°40.311 20.035038 4.37781 30.808023  
2002-08-12 07:39:27 51°9.834 2°40.281 19.984626 4.515063 32.321555  
2002-08-12 07:39:32 51°9.827 2°40.251 19.771166 4.560224 32.990314  
2002-08-12 07:39:37 51°9.82 2°40.22 19.832076 4.571307 33.294789  
2002-08-12 07:39:42 51°9.814 2°40.19 19.832076 4.571307 33.294789  
2002-08-12 07:39:46 51°9.809 2°40.165 19.597398 4.577218 33.490165  
2002-08-12 07:39:52 51°9.801 2°40.129 20.275518 4.58566 33.643044  
2002-08-12 07:39:57 51°9.794 2°40.098 19.735025 4.581546 33.670976  
2002-08-12 07:40:02 51°9.788 2°40.068 19.728282 4.585662 33.741012  
2002-08-12 07:40:06 51°9.783 2°40.043 19.822746 4.581442 33.735547  
2002-08-12 07:40:12 51°9.775 2°40.007 19.822746 4.581442 33.735547  
2002-08-12 07:40:17 51°9.769 2°39.976 20.012224 4.578066 33.725534  
2002-08-12 07:40:22 51°9.762 2°39.945 19.880369 4.574901 33.7092  
2002-08-12 07:40:26 51°9.757 2°39.921 19.815565 4.579333 33.763635  
2002-08-12 07:40:32 51°9.749 2°39.884 19.652319 4.57448 33.738545  
2002-08-12 07:40:37 51°9.742 2°39.854 19.875099 4.571103 33.719304  
2002-08-12 07:40:42 51°9.736 2°39.824 19.875099 4.571103 33.719304  
2002-08-12 07:40:46 51°9.73 2°39.799 20.005993 4.570576 33.723016  
2002-08-12 07:40:52 51°9.722 2°39.762 20.040134 4.571948 33.741273  
2002-08-12 07:40:57 51°9.715 2°39.732 19.911573 4.575113 33.773789  
2002-08-12 07:41:02 51°9.709 2°39.701 19.949243 4.573847 33.76621  
2002-08-12 07:41:06 51°9.703 2°39.676 19.786997 4.565618 33.700487  
2002-08-12 07:41:12 51°9.696 2°39.639 19.786997 4.565618 33.700487  
2002-08-12 07:41:17 51°9.689 2°39.608 19.711829 4.572792 33.764998  
2002-08-12 07:41:22 51°9.683 2°39.577 19.742458 4.569838 33.744612  
2002-08-12 07:41:26 51°9.678 2°39.553 19.843229 4.567728 33.728895  
2002-08-12 07:41:32 51°9.67 2°39.515 19.838525 4.573531 33.778042  
2002-08-12 07:41:37 51°9.663 2°39.484 19.910925 4.564141 33.701541  
2002-08-12 07:41:42 51°9.657 2°39.453 19.910925 4.564141 33.701541  
2002-08-12 07:41:46 51°9.652 2°39.428 20.00571 4.567622 33.728022  
2002-08-12 07:41:52 51°9.643 2°39.391 20.069408 4.57121 33.759422  
2002-08-12 07:41:57 51°9.637 2°39.36 19.94171 4.565407 33.715473  
2002-08-12 07:42:02 51°9.63 2°39.329 20.068883 4.563086 33.696278  
2002-08-12 07:42:06 51°9.625 2°39.304 19.904239 4.5672 33.731461  
2002-08-12 07:42:12 51°9.617 2°39.267 19.904239 4.5672 33.731461  
2002-08-12 07:42:17 51°9.61 2°39.236 20.042561 4.568467 33.743666  
2002-08-12 07:42:22 51°9.603 2°39.206 20.140723 4.56699 33.732604  
2002-08-12 07:42:27 51°9.597 2°39.174 20.166524 4.568994 33.753231  
2002-08-12 07:42:32 51°9.59 2°39.144 19.704555 4.571104 33.770689  
2002-08-12 07:42:37 51°9.584 2°39.113 19.860991 4.569944 33.761665  
2002-08-12 07:42:42 51°9.577 2°39.081 19.860991 4.569944 33.761665  
2002-08-12 07:42:46 51°9.572 2°39.056 19.68208 4.557705 33.659278  
2002-08-12 07:42:52 51°9.564 2°39.019 19.609444 4.567201 33.738393  
2002-08-12 07:42:57 51°9.558 2°38.988 19.668746 4.558127 33.663921  
2002-08-12 07:43:02 51°9.551 2°38.957 19.588892 4.559393 33.675545  
2002-08-12 07:43:06 51°9.546 2°38.932 19.825464 4.557178 33.66068  
2002-08-12 07:43:12 51°9.538 2°38.895 19.825464 4.557178 33.66068  
2002-08-12 07:43:17 51°9.531 2°38.863 19.948716 4.566357 33.742968  
2002-08-12 07:43:22 51°9.524 2°38.832 19.613594 4.565302 33.741174  
2002-08-12 07:43:27 51°9.518 2°38.801 19.911694 4.564247 33.737067  
2002-08-12 07:43:32 51°9.511 2°38.77 19.642843 4.570894 33.800784  
2002-08-12 07:43:37 51°9.504 2°38.739 19.770476 4.571844 33.813286  
2002-08-12 07:43:42 51°9.498 2°38.707 19.770476 4.571844 33.813286  
2002-08-12 07:43:47 51°9.491 2°38.676 19.669396 4.572688 33.824918  
2002-08-12 07:43:52 51°9.485 2°38.645 19.838079 4.572371 33.827517  
2002-08-12 07:43:57 51°9.478 2°38.614 19.768284 4.571738 33.826334  
2002-08-12 07:44:02 51°9.471 2°38.583 19.934056 4.569839 33.812918  
2002-08-12 07:44:06 51°9.466 2°38.558 19.93041 4.572055 33.835342  
2002-08-12 07:44:12 51°9.458 2°38.52 19.93041 4.572055 33.835342  
2002-08-12 07:44:17 51°9.451 2°38.489 19.700044 4.570261 33.823379  
2002-08-12 07:44:22 51°9.444 2°38.458 19.830859 4.569734 33.821328  
2002-08-12 07:44:27 51°9.437 2°38.427 19.830088 4.569945 33.823077  
2002-08-12 07:44:32 51°9.43 2°38.396 19.664192 4.568362 33.811701  
2002-08-12 07:44:37 51°9.423 2°38.365 19.752611 4.567835 33.809649  
2002-08-12 07:44:42 51°9.415 2°38.334 19.752611 4.567835 33.809649  
2002-08-12 07:44:46 51°9.409 2°38.31 19.721457 4.567835 33.809649  
2002-08-12 07:44:52 51°9.399 2°38.274 19.82019 4.563826 33.775259  
2002-08-12 07:44:57 51°9.391 2°38.244 19.780868 4.567307 33.807598  
2002-08-12 07:45:02 51°9.383 2°38.213 19.785739 4.567096 33.805849  
2002-08-12 07:45:06 51°9.376 2°38.189 19.811873 4.568046 33.817204  
2002-08-12 07:45:12 51°9.366 2°38.153 19.811873 4.568046 33.817204  
2002-08-12 07:45:17 51°9.358 2°38.123 19.842621 4.56889 33.827106  
2002-08-12 07:45:22 51°9.349 2°38.093 19.646869 4.56889 33.828848  
2002-08-12 07:45:26 51°9.343 2°38.069 19.477685 4.569101 33.833503  
2002-08-12 07:45:32 51°9.333 2°38.033 19.6463 4.568679 33.832328  
2002-08-12 07:45:37 51°9.325 2°38.002 19.715851 4.569312 33.836415  
2002-08-12 07:45:42 51°9.316 2°37.972 19.715851 4.569312 33.836415  
2002-08-12 07:45:46 51°9.309 2°37.948 19.641338 4.56889 33.835821  
2002-08-12 07:45:52 51°9.298 2°37.913 19.904928 4.569523 33.841653  
2002-08-12 07:45:57 51°9.29 2°37.884 19.874531 4.568785 33.835527  
2002-08-12 07:46:02 51°9.28 2°37.854 19.669559 4.56889 33.836984  
2002-08-12 07:46:07 51°9.271 2°37.825 19.577413 4.567835 33.827652  
2002-08-12 07:46:12 51°9.262 2°37.796 19.577413 4.567835 33.827652  
2002-08-12 07:46:17 51°9.253 2°37.767 19.808424 4.568152 33.830277  
2002-08-12 07:46:22 51°9.244 2°37.738 19.675413 4.568152 33.833764  
2002-08-12 07:46:26 51°9.237 2°37.714 19.74124 4.568468 33.836389  
2002-08-12 07:46:32 51°9.226 2°37.679 19.607938 4.568574 33.839008  
2002-08-12 07:46:37 51°9.217 2°37.652 19.644714 4.568046 33.835795  
2002-08-12 07:46:42 51°9.209 2°37.625 19.644714 4.568046 33.835795  
2002-08-12 07:46:47 51°9.201 2°37.599 19.808749 4.56773 33.833751  
2002-08-12 07:46:52 51°9.194 2°37.574 19.67582 4.567941 33.83492  
2002-08-12 07:46:57 51°9.187 2°37.55 19.875302 4.567835 33.832882  
2002-08-12 07:47:02 51°9.18 2°37.528 19.6092 4.568363 33.837839  
2002-08-12 07:47:06 51°9.175 2°37.512 19.744204 4.568679 33.840465  
2002-08-12 07:47:12 51°9.168 2°37.488 19.744204 4.568679 33.840465  
2002-08-12 07:47:17 51°9.163 2°37.469 19.711463 4.56773 33.831426  
2002-08-12 07:47:22 51°9.157 2°37.451 19.548748 4.569312 33.845135  
2002-08-12 07:47:26 51°9.153 2°37.437 19.585269 4.569101 33.843966  
2002-08-12 07:47:32 51°9.147 2°37.418 19.784927 4.569734 33.848636  
2002-08-12 07:47:37 51°9.142 2°37.402 19.720645 4.56984 33.850674  
2002-08-12 07:47:42 51°9.136 2°37.388 19.720645 4.56984 33.850674  
2002-08-12 07:47:47 51°9.131 2°37.373 19.553879 4.569418 33.845429  
2002-08-12 07:47:52 51°9.126 2°37.36 19.489792 4.569312 33.843972  
2002-08-12 07:47:57 51°9.121 2°37.348 19.621243 4.569629 33.844853  
2002-08-12 07:48:02 51°9.116 2°37.335 19.822989 4.570156 33.849229  
2002-08-12 07:48:06 51°9.112 2°37.326 19.624823 4.570156 33.848066  
2002-08-12 07:48:12 51°9.106 2°37.313 19.624823 4.570156 33.848066  
2002-08-12 07:48:17 51°9.101 2°37.303 19.893419 4.569629 33.841947  
2002-08-12 07:48:22 51°9.096 2°37.293 19.959204 4.570684 33.850116  
2002-08-12 07:48:27 51°9.092 2°37.283 19.729785 4.571 33.85216  
2002-08-12 07:48:32 51°9.087 2°37.274 19.530663 4.570262 33.844872  
2002-08-12 07:48:37 51°9.083 2°37.266 19.763696 4.571211 33.851585  
2002-08-12 07:48:42 51°9.079 2°37.258 19.763696 4.571211 33.851585  
2002-08-12 07:48:47 51°9.075 2°37.251 19.501245 4.570473 33.845459  
2002-08-12 07:48:52 51°9.072 2°37.245 19.56357 4.570895 33.848378  
2002-08-12 07:48:57 51°9.07 2°37.239 19.896621 4.570789 33.846922  
2002-08-12 07:49:02 51°9.069 2°37.234 20.067347 4.571317 33.849553  
2002-08-12 07:49:06 51°9.067 2°37.23 19.767472 4.571106 33.846641  
2002-08-12 07:49:12 51°9.066 2°37.227 19.767472 4.571106 33.846641  
2002-08-12 07:49:17 51°9.065 2°37.224 19.702686 4.571211 33.846353  
2002-08-12 07:49:22 51°9.064 2°37.223 19.533474 4.571528 33.847815  
2002-08-12 07:49:27 51°9.064 2°37.222 19.668746 4.57195 33.852478  
2002-08-12 07:49:32 51°9.063 2°37.221 19.636539 4.571633 33.848109  
2002-08-12 07:49:37 51°9.063 2°37.221 19.970944 4.571844 33.848115  
2002-08-12 07:49:42 51°9.063 2°37.221 19.970944 4.571844 33.848115  
2002-08-12 07:49:47 51°9.062 2°37.221 19.63662 4.571528 33.84491  
2002-08-12 07:49:53 51°9.062 2°37.22 19.70297 4.571106 33.842573  
2002-08-12 07:49:58 51°9.061 2°37.219 19.503731 4.572266 33.851615  
2002-08-12 07:50:03 51°9.06 2°37.216 19.670169 4.572688 33.855114  
2002-08-12 07:50:08 51°9.059 2°37.212 19.605497 4.571633 33.845785  
2002-08-12 07:50:13 51°9.058 2°37.208 19.605497 4.571633 33.845785  
2002-08-12 07:50:18 51°9.056 2°37.201 19.80883 4.573005 33.855995  
2002-08-12 07:50:23 51°9.055 2°37.194 19.675617 4.572055 33.849865  
2002-08-12 07:50:27 51°9.054 2°37.188 19.809073 4.572583 33.853658  
2002-08-12 07:50:32 51°9.054 2°37.179 19.906306 4.572688 33.855114  
2002-08-12 07:50:37 51°9.053 2°37.17 20.007814 4.571211 33.842285  
2002-08-12 07:50:42 51°9.054 2°37.16 20.007814 4.571211 33.842285  
2002-08-12 07:50:46 51°9.055 2°37.152 20.239474 4.572055 33.848703  
2002-08-12 07:50:52 51°9.057 2°37.14 19.773277 4.572055 33.846959  
2002-08-12 07:50:57 51°9.06 2°37.131 19.710406 4.571317 33.841417  
2002-08-12 07:51:02 51°9.063 2°37.122 19.906589 4.572161 33.846672  
2002-08-12 07:51:06 51°9.066 2°37.115 19.703742 4.57195 33.844923  
2002-08-12 07:51:12 51°9.072 2°37.105 19.703742 4.57195 33.844923  
2002-08-12 07:51:17 51°9.077 2°37.098 19.538077 4.572477 33.848715  
2002-08-12 07:51:22 51°9.082 2°37.092 20.102832 4.572583 33.848428  
2002-08-12 07:51:26 51°9.087 2°37.089 19.571998 4.571528 33.8391  
2002-08-12 07:51:32 51°9.095 2°37.086 19.54048 4.571211 33.837638  
2002-08-12 07:51:37 51°9.101 2°37.084 19.6092 4.571211 33.838799  
2002-08-12 07:51:42 51°9.107 2°37.084 19.6092 4.571211 33.838799  
2002-08-12 07:51:46 51°9.112 2°37.085 19.677283 4.571528 33.841424  
2002-08-12 07:51:52 51°9.119 2°37.088 20.177261 4.571317 33.842579  
2002-08-12 07:51:57 51°9.125 2°37.092 19.682893 4.572055 33.845216  
2002-08-12 07:52:02 51°9.13 2°37.097 19.787687 4.572055 33.846378  
2002-08-12 07:52:06 51°9.133 2°37.102 19.721254 4.571739 33.843754  
2002-08-12 07:52:12 51°9.138 2°37.111 19.721254 4.571739 33.843754  
2002-08-12 07:52:17 51°9.14 2°37.119 19.623847 4.57195 33.844342  
2002-08-12 07:52:22 51°9.143 2°37.128 19.555711 4.57195 33.842599  
2002-08-12 07:52:27 51°9.144 2°37.138 18.987827 4.571739 33.839688  
2002-08-12 07:52:32 51°9.143 2°37.147 18.989757 4.571844 33.839981  
2002-08-12 07:52:37 51°9.142 2°37.157 18.987294 4.572161 33.840863  
2002-08-12 07:52:42 51°9.141 2°37.167 18.987294 4.572161 33.840863  
2002-08-12 07:52:46 51°9.139 2°37.175 18.98639 4.572794 33.843787  
2002-08-12 07:52:52 51°9.136 2°37.187 18.984584 4.572266 33.837091  
2002-08-12 07:52:57 51°9.133 2°37.198 19.016764 4.573427 33.842065  
2002-08-12 07:53:02 51°9.129 2°37.208 18.979739 4.573637 33.842072  
2002-08-12 07:53:06 51°9.126 2°37.215 18.977768 4.573954 33.845275  
2002-08-12 07:53:12 51°9.121 2°37.225 18.977768 4.573954 33.845275  
2002-08-12 07:53:17 51°9.116 2°37.232 18.974525 4.574482 33.850228  
2002-08-12 07:53:22 51°9.111 2°37.239 18.973128 4.573954 33.846437  
2002-08-12 07:53:27 51°9.106 2°37.245 19.07001 4.572688 33.836525  
2002-08-12 07:53:32 51°9.101 2°37.25 18.963971 4.572688 33.837105  
2002-08-12 07:53:37 51°9.097 2°37.255 18.963232 4.572055 33.8336  
2002-08-12 07:53:42 51°9.092 2°37.259 18.963232 4.572055 33.8336  
2002-08-12 07:53:46 51°9.088 2°37.262 18.960809 4.571738 33.830977  
2002-08-12 07:53:52 51°9.084 2°37.266 18.959001 4.571527 33.832131  
2002-08-12 07:53:57 51°9.081 2°37.269 18.990167 4.571 33.8295  
2002-08-12 07:54:02 51°9.078 2°37.271 18.954237 4.570683 33.829199  
2002-08-12 07:54:06 51°9.076 2°37.273 18.952758 4.570684 33.832103  
2002-08-12 07:54:12 51°9.074 2°37.275 18.952758 4.570684 33.832103  
2002-08-12 07:54:17 51°9.073 2°37.275 18.952758 4.570789 33.835301  
2002-08-12 07:54:22 51°9.072 2°37.274 18.950705 4.571317 33.841998  
2002-08-12 07:54:26 51°9.072 2°37.273 18.983434 4.570051 33.834405  
2002-08-12 07:54:32 51°9.071 2°37.271 18.982983 4.569629 33.832649  
2002-08-12 07:54:37 51°9.071 2°37.269 18.980807 4.570895 33.843728  
2002-08-12 07:54:42 51°9.07 2°37.267 18.980807 4.570895 33.843728  
2002-08-12 07:54:46 51°9.069 2°37.266 18.946926 4.569101 33.832922  
2002-08-12 07:54:52 51°9.069 2°37.265 18.980191 4.570051 33.838472  
2002-08-12 07:54:57 51°9.069 2°37.265 19.014056 4.571211 33.848097  
2002-08-12 07:55:02 51°9.068 2°37.265 18.979534 4.570051 33.841378  
2002-08-12 07:55:06 51°9.068 2°37.266 18.945406 4.570051 33.843122  
2002-08-12 07:55:12 51°9.068 2°37.27 18.945406 4.570051 33.843122  
2002-08-12 07:55:17 51°9.069 2°37.273 18.945488 4.570262 33.843709  
2002-08-12 07:55:22 51°9.07 2°37.276 18.944009 4.571106 33.85071  
2002-08-12 07:55:26 51°9.071 2°37.278 18.942694 4.569945 33.842828  
2002-08-12 07:55:32 51°9.073 2°37.281 18.941955 4.570473 33.846622  
2002-08-12 07:55:37 51°9.074 2°37.283 18.974319 4.570473 33.846041  
2002-08-12 07:55:42 51°9.076 2°37.285 18.974319 4.570473 33.846041  
2002-08-12 07:55:47 51°9.078 2°37.286 19.008064 4.570789 33.848666  
2002-08-12 07:55:52 51°9.08 2°37.288 18.97358 4.570578 33.847497  
2002-08-12 07:55:57 51°9.081 2°37.289 18.939613 4.570367 33.846328  
2002-08-12 07:56:02 51°9.083 2°37.29 18.940065 4.570578 33.849241  
2002-08-12 07:56:06 51°9.085 2°37.29 18.938422 4.570156 33.848066  
2002-08-12 07:56:12 51°9.087 2°37.291 18.938422 4.570156 33.848066  
2002-08-12 07:56:17 51°9.089 2°37.292 18.937847 4.570051 33.848354  
2002-08-12 07:56:22 51°9.091 2°37.292 18.937066 4.569734 33.845147  
2002-08-12 07:56:26 51°9.092 2°37.292 18.970459 4.569629 33.846016  
2002-08-12 07:56:32 51°9.093 2°37.292 18.936655 4.56984 33.848348  
2002-08-12 07:56:36 51°9.094 2°37.291 18.936491 4.569312 33.844554  
2002-08-12 07:56:41 51°9.094 2°37.29 18.936491 4.569312 33.844554  
2002-08-12 07:56:46 51°9.095 2°37.289 18.935628 4.569629 33.846016  
2002-08-12 07:56:52 51°9.095 2°37.289 18.968447 4.569418 33.844847  
2002-08-12 07:56:57 51°9.096 2°37.288 18.934108 4.568996 33.844254  
2002-08-12 07:57:02 51°9.097 2°37.287 18.933738 4.56984 33.850093  
2002-08-12 07:57:07 51°9.098 2°37.287 19.001702 4.568996 33.843672  
2002-08-12 07:57:12 51°9.098 2°37.286 19.001702 4.568996 33.843672  
2002-08-12 07:57:17 51°9.099 2°37.286 18.935259 4.56889 33.84396  
2002-08-12 07:57:22 51°9.1 2°37.285 18.933862 4.56984 33.850093  
2002-08-12 07:57:27 51°9.1 2°37.284 18.967585 4.56984 33.851838  
2002-08-12 07:57:32 51°9.101 2°37.284 18.967379 4.569418 33.8495  
2002-08-12 07:57:37 51°9.102 2°37.283 18.933081 4.569418 33.8495  
2002-08-12 07:57:42 51°9.103 2°37.282 18.933081 4.569418 33.8495  
2002-08-12 07:57:47 51°9.104 2°37.281 18.933204 4.568679 33.843954  
2002-08-12 07:57:52 51°9.105 2°37.281 18.932629 4.56889 33.843378  
2002-08-12 07:57:57 51°9.106 2°37.28 18.933492 4.569207 33.847167  
2002-08-12 07:58:02 51°9.107 2°37.279 18.966763 4.568679 33.843954  
2002-08-12 07:58:06 51°9.108 2°37.278 18.932917 4.569101 33.846874  
2002-08-12 07:58:12 51°9.109 2°37.277 18.932917 4.569101 33.846874  
2002-08-12 07:58:17 51°9.11 2°37.277 18.998952 4.569101 33.846874  
2002-08-12 07:58:22 51°9.111 2°37.276 18.931684 4.568785 33.844829  
2002-08-12 07:58:27 51°9.112 2°37.275 18.964135 4.569101 33.848037  
2002-08-12 07:58:32 51°9.114 2°37.275 18.964669 4.568785 33.843085  
2002-08-12 07:58:37 51°9.115 2°37.274 18.963889 4.568046 33.838702  
2002-08-12 07:58:42 51°9.116 2°37.273 18.963889 4.568046 33.838702  
2002-08-12 07:58:46 51°9.117 2°37.272 18.963519 4.694344 34.666219  
2002-08-12 07:58:52 51°9.118 2°37.271 18.929054 4.568574 33.841916  
2002-08-12 07:58:57 51°9.12 2°37.271 18.928972 4.569207 33.848331  
2002-08-12 07:59:02 51°9.121 2°37.27 18.92889 4.568574 33.844823  
2002-08-12 07:59:07 51°9.122 2°37.269 18.928972 4.569418 33.851245  
2002-08-12 07:59:12 51°9.123 2°37.268 18.928972 4.569418 33.851245  
2002-08-12 07:59:17 51°9.124 2°37.267 18.929178 4.568679 33.846862  
2002-08-12 07:59:22 51°9.126 2°37.267 18.996489 4.569735 33.85678  
2002-08-12 07:59:27 51°9.127 2°37.266 18.963519 4.568468 33.846274  
2002-08-12 07:59:32 51°9.128 2°37.265 18.929506 4.568363 33.847144  
2002-08-12 07:59:37 51°9.129 2°37.264 18.929589 4.569101 33.850363  
2002-08-12 07:59:42 51°9.131 2°37.264 18.929589 4.569101 33.850363  
2002-08-12 07:59:46 51°9.132 2°37.263 18.929753 4.568468 33.845111  
2002-08-12 07:59:52 51°9.134 2°37.262 18.963437 4.568257 33.845687  
2002-08-12 07:59:57 51°9.135 2°37.262 18.929876 4.568468 33.846856  
2002-08-12 08:00:02 51°9.137 2°37.262 19.031126 4.569102 33.852109  
2002-08-12 08:00:06 51°9.138 2°37.261 18.964423 4.568996 33.85007  
2002-08-12 08:00:12 51°9.14 2°37.26 18.964423 4.568996 33.85007  
2002-08-12 08:00:17 51°9.141 2°37.259 18.931396 4.568574 33.848313  
2002-08-12 08:00:22 51°9.142 2°37.258 18.965408 4.568574 33.847731  
2002-08-12 08:00:26 51°9.143 2°37.258 18.93152 4.569313 33.853278  
2002-08-12 08:00:32 51°9.145 2°37.257 18.931191 4.568574 33.847731  
2002-08-12 08:00:37 51°9.146 2°37.256 18.931438 4.569313 33.852114  
2002-08-12 08:00:42 51°9.148 2°37.255 18.931438 4.569313 33.852114  
2002-08-12 08:00:46 51°9.149 2°37.254 18.931314 4.568785 33.848319  
2002-08-12 08:00:52 51°9.151 2°37.254 18.93115 4.569735 33.856198  
2002-08-12 08:00:57 51°9.152 2°37.253 18.930986 4.569313 33.852696  
2002-08-12 08:01:02 51°9.153 2°37.252 18.998377 4.569523 33.850957  
2002-08-12 08:01:06 51°9.154 2°37.251 18.931396 4.568468 33.846274  
2002-08-12 08:01:12 51°9.156 2°37.251 18.931396 4.568468 33.846274  
2002-08-12 08:01:17 51°9.158 2°37.25 18.930698 4.56889 33.845705  
2002-08-12 08:01:22 51°9.159 2°37.249 18.930534 4.568996 33.848906  
2002-08-12 08:01:27 51°9.16 2°37.248 18.963766 4.569523 33.851538  
2002-08-12 08:01:32 51°9.162 2°37.248 18.930246 4.56984 33.856491  
2002-08-12 08:01:37 51°9.163 2°37.247 18.929958 4.568785 33.847156  
2002-08-12 08:01:42 51°9.165 2°37.246 18.929958 4.568785 33.847156  
2002-08-12 08:01:47 51°9.166 2°37.245 18.93078 4.56889 33.848031  
2002-08-12 08:01:52 51°9.167 2°37.244 18.964587 4.570157 33.857954  
2002-08-12 08:01:57 51°9.169 2°37.244 18.931314 4.568679 33.848025  
2002-08-12 08:02:02 51°9.17 2°37.243 18.931273 4.568468 33.846274  
2002-08-12 08:02:07 51°9.172 2°37.243 18.93115 4.568679 33.846862  
2002-08-12 08:02:12 51°9.173 2°37.242 18.93115 4.568679 33.846862  
2002-08-12 08:02:17 51°9.175 2°37.242 18.931109 4.569312 33.850951  
2002-08-12 08:02:22 51°9.177 2°37.242 18.964792 4.568574 33.844242  
2002-08-12 08:02:26 51°9.178 2°37.241 18.931314 4.568679 33.846862  
2002-08-12 08:02:32 51°9.179 2°37.24 18.931643 4.569629 33.852995  
2002-08-12 08:02:37 51°9.18 2°37.239 18.931766 4.568996 33.848325  
2002-08-12 08:02:42 51°9.181 2°37.238 18.931766 4.568996 33.848325  
2002-08-12 08:02:46 51°9.182 2°37.237 18.965408 4.568679 33.844535  
2002-08-12 08:02:52 51°9.183 2°37.236 18.932218 4.568257 33.842779  
2002-08-12 08:02:57 51°9.184 2°37.235 18.931848 4.569207 33.848912  
2002-08-12 08:03:02 51°9.185 2°37.234 18.964956 4.570368 33.857378  
2002-08-12 08:03:06 51°9.186 2°37.233 18.932054 4.569418 33.850081  
2002-08-12 08:03:12 51°9.187 2°37.232 18.932054 4.569418 33.850081  
2002-08-12 08:03:17 51°9.188 2°37.231 18.931848 4.568785 33.845992  
2002-08-12 08:03:22 51°9.189 2°37.23 18.965121 4.569207 33.848331  
2002-08-12 08:03:27 51°9.19 2°37.23 18.931314 4.569418 33.848918  
2002-08-12 08:03:32 51°9.191 2°37.229 18.931438 4.56889 33.846868  
2002-08-12 08:03:37 51°9.191 2°37.228 18.931931 4.569207 33.847749  
2002-08-12 08:03:42 51°9.192 2°37.227 18.931931 4.569207 33.847749  
2002-08-12 08:03:47 51°9.193 2°37.225 18.931931 4.568574 33.844242  
2002-08-12 08:03:52 51°9.193 2°37.224 18.966106 4.568574 33.844823  
2002-08-12 08:03:57 51°9.194 2°37.222 18.932506 4.569629 33.854159  
2002-08-12 08:04:02 51°9.194 2°37.221 18.931766 4.56984 33.853583  
2002-08-12 08:04:06 51°9.195 2°37.22 18.931396 4.56889 33.846286  
2002-08-12 08:04:12 51°9.195 2°37.219 18.931396 4.56889 33.846286  
2002-08-12 08:04:17 51°9.196 2°37.218 18.930986 4.569207 33.850076  
2002-08-12 08:04:22 51°9.196 2°37.216 18.964874 4.569312 33.848624  
2002-08-12 08:04:26 51°9.197 2°37.215 18.931848 4.568996 33.845998  
2002-08-12 08:04:32 51°9.197 2°37.214 18.965942 4.568785 33.845992  
2002-08-12 08:04:37 51°9.198 2°37.213 18.932752 4.56889 33.846286  
2002-08-12 08:04:42 51°9.198 2°37.212 18.932752 4.56889 33.846286  
2002-08-12 08:04:47 51°9.198 2°37.21 18.933656 4.568996 33.847161  
2002-08-12 08:04:52 51°9.199 2°37.209 18.967913 4.569312 33.850951  
2002-08-12 08:04:57 51°9.2 2°37.208 18.934848 4.569418 33.851826  
2002-08-12 08:05:02 51°9.202 2°37.206 18.93493 4.569418 33.851826  
2002-08-12 08:05:06 51°9.204 2°37.205 18.968899 4.569101 33.848037  
2002-08-12 08:05:12 51°9.209 2°37.201 18.968899 4.569101 33.848037  
2002-08-12 08:05:17 51°9.213 2°37.197 18.934683 4.569312 33.849788  
2002-08-12 08:05:22 51°9.218 2°37.192 18.967585 4.569101 33.847455  
2002-08-12 08:05:26 51°9.221 2°37.185 18.96701 4.569418 33.848918  
2002-08-12 08:05:32 51°9.226 2°37.173 18.967749 4.568996 33.844835  
2002-08-12 08:05:37 51°9.229 2°37.16 18.968488 4.570051 33.853007  
2002-08-12 08:05:42 51°9.231 2°37.146 18.968488 4.570051 33.853007  
2002-08-12 08:05:47 51°9.232 2°37.131 18.969022 4.56889 33.84396  
2002-08-12 08:05:52 51°9.231 2°37.115 18.971732 4.569629 33.849505  
2002-08-12 08:05:57 51°9.229 2°37.099 18.939531 4.569312 33.848624  
2002-08-12 08:06:02 51°9.225 2°37.084 18.941955 4.568785 33.844829  
2002-08-12 08:06:07 51°9.22 2°37.07 18.944379 4.568996 33.845998  
2002-08-12 08:06:12 51°9.213 2°37.057 18.944379 4.568996 33.845998  
2002-08-12 08:06:17 51°9.205 2°37.047 18.946392 4.569523 33.849212  
2002-08-12 08:06:22 51°9.196 2°37.038 18.948445 4.571001 33.860303  
2002-08-12 08:06:26 51°9.188 2°37.034 18.951526 4.569418 33.84601  
2002-08-12 08:06:32 51°9.177 2°37.03 18.95243 4.569523 33.845141  
2002-08-12 08:06:37 51°9.167 2°37.03 18.987909 4.568996 33.840184  
2002-08-12 08:06:42 51°9.157 2°37.033 18.987909 4.568996 33.840184  
2002-08-12 08:06:46 51°9.15 2°37.038 18.954689 4.569523 33.842816  
2002-08-12 08:06:52 51°9.141 2°37.047 18.954237 4.569734 33.842241  
2002-08-12 08:06:57 51°9.135 2°37.057 18.953128 4.569418 33.839034  
2002-08-12 08:07:02 51°9.13 2°37.068 18.984502 4.569418 33.837872  
2002-08-12 08:07:07 51°9.126 2°37.08 18.98171 4.569629 33.837878  
2002-08-12 08:07:12 51°9.125 2°37.093 18.98171 4.569629 33.837878  
2002-08-12 08:07:17 51°9.126 2°37.106 18.946392 4.569945 33.83876  
2002-08-12 08:07:22 51°9.127 2°37.119 18.943927 4.570367 33.841678  
2002-08-12 08:07:26 51°9.13 2°37.129 18.941174 4.569523 33.834679  
2002-08-12 08:07:32 51°9.135 2°37.142 18.939244 4.570051 33.837891  
2002-08-12 08:07:37 51°9.139 2°37.152 18.937806 4.570262 33.841385  
2002-08-12 08:07:42 51°9.143 2°37.162 18.937806 4.570262 33.841385  
2002-08-12 08:07:46 51°9.146 2°37.169 19.003631 4.569734 33.839334